sensor_id;sensor_type;location;lat;lon;timestamp;pressure;altitude;pressure_sealevel;temperature;humidity
10897;BME280;5501;51.176;6.470;2023-08-31T00:03:26;100335.09;;;14.81;100.00
10897;BME280;5501;51.176;6.470;2023-08-31T00:08:27;100338.16;;;14.73;100.00
10897;BME280;5501;51.176;6.470;2023-08-31T00:13:29;100342.16;;;14.82;100.00
10897;BME280;5501;51.176;6.470;2023-08-31T00:18:31;100340.97;;;14.70;100.00
10897;BME280;5501;51.176;6.470;2023-08-31T00:23:32;100330.34;;;14.69;100.00
10897;BME280;5501;51.176;6.470;2023-08-31T00:28:34;100334.75;;;14.53;100.00
10897;BME280;5501;51.176;6.470;2023-08-31T00:33:38;100334.41;;;14.42;100.00
10897;BME280;5501;51.176;6.470;2023-08-31T00:38:39;100336.78;;;14.48;100.00
10897;BME280;5501;51.176;6.470;2023-08-31T00:43:42;100328.91;;;14.62;100.00
10897;BME280;5501;51.176;6.470;2023-08-31T00:48:44;100324.66;;;14.41;100.00
10897;BME280;5501;51.176;6.470;2023-08-31T00:53:46;100321.47;;;14.33;100.00
10897;BME280;5501;51.176;6.470;2023-08-31T00:58:47;100325.25;;;14.29;100.00
10897;BME280;5501;51.176;6.470;2023-08-31T01:09:21;100319.13;;;14.27;100.00
10897;BME280;5501;51.176;6.470;2023-08-31T01:14:33;100321.34;;;14.17;100.00
10897;BME280;5501;51.176;6.470;2023-08-31T01:19:48;100322.28;;;14.16;100.00
10897;BME280;5501;51.176;6.470;2023-08-31T01:24:50;100328.56;;;14.15;100.00
10897;BME280;5501;51.176;6.470;2023-08-31T01:29:54;100319.97;;;14.09;100.00
10897;BME280;5501;51.176;6.470;2023-08-31T01:34:56;100319.81;;;14.12;100.00
10897;BME280;5501;51.176;6.470;2023-08-31T01:40:20;100329.00;;;14.06;100.00
10897;BME280;5501;51.176;6.470;2023-08-31T01:45:24;100330.03;;;14.04;100.00
10897;BME280;5501;51.176;6.470;2023-08-31T01:50:27;100336.13;;;14.07;100.00
10897;BME280;5501;51.176;6.470;2023-08-31T01:55:28;100330.84;;;14.06;100.00
10897;BME280;5501;51.176;6.470;2023-08-31T02:00:30;100341.16;;;13.95;100.00
10897;BME280;5501;51.176;6.470;2023-08-31T02:05:36;100341.72;;;14.01;100.00
10897;BME280;5501;51.176;6.470;2023-08-31T02:10:38;100351.22;;;13.90;100.00
10897;BME280;5501;51.176;6.470;2023-08-31T02:15:40;100351.28;;;13.88;100.00
10897;BME280;5501;51.176;6.470;2023-08-31T02:20:41;100341.16;;;13.95;100.00
10897;BME280;5501;51.176;6.470;2023-08-31T02:25:43;100347.97;;;13.83;100.00
10897;BME280;5501;51.176;6.470;2023-08-31T02:30:45;100354.16;;;13.84;100.00
10897;BME280;5501;51.176;6.470;2023-08-31T02:35:47;100352.28;;;13.86;100.00
10897;BME280;5501;51.176;6.470;2023-08-31T02:40:49;100354.28;;;13.81;100.00
10897;BME280;5501;51.176;6.470;2023-08-31T02:45:59;100354.72;;;13.72;100.00
10897;BME280;5501;51.176;6.470;2023-08-31T02:51:00;100354.72;;;13.72;100.00
10897;BME280;5501;51.176;6.470;2023-08-31T02:56:03;100354.72;;;13.72;100.00
10897;BME280;5501;51.176;6.470;2023-08-31T03:01:12;100356.31;;;13.76;100.00
10897;BME280;5501;51.176;6.470;2023-08-31T03:06:19;100357.47;;;13.70;100.00
10897;BME280;5501;51.176;6.470;2023-08-31T03:11:21;100356.88;;;13.64;100.00
10897;BME280;5501;51.176;6.470;2023-08-31T03:16:22;100354.16;;;13.65;100.00
10897;BME280;5501;51.176;6.470;2023-08-31T03:21:24;100349.94;;;13.60;100.00
10897;BME280;5501;51.176;6.470;2023-08-31T03:26:25;100355.03;;;13.66;100.00
10897;BME280;5501;51.176;6.470;2023-08-31T03:31:27;100356.88;;;13.64;100.00
10897;BME280;5501;51.176;6.470;2023-08-31T03:36:30;100349.16;;;13.58;100.00
10897;BME280;5501;51.176;6.470;2023-08-31T03:41:32;100356.88;;;13.64;100.00
10897;BME280;5501;51.176;6.470;2023-08-31T03:46:34;100356.38;;;13.56;100.00
10897;BME280;5501;51.176;6.470;2023-08-31T03:51:35;100351.84;;;13.58;100.00
10897;BME280;5501;51.176;6.470;2023-08-31T03:56:37;100357.91;;;13.61;100.00
10897;BME280;5501;51.176;6.470;2023-08-31T04:01:38;100359.34;;;13.50;100.00
10897;BME280;5501;51.176;6.470;2023-08-31T04:06:40;100353.91;;;13.51;100.00
10897;BME280;5501;51.176;6.470;2023-08-31T04:11:42;100365.34;;;13.35;100.00
10897;BME280;5501;51.176;6.470;2023-08-31T04:16:44;100365.94;;;13.41;100.00
10897;BME280;5501;51.176;6.470;2023-08-31T04:21:46;100379.09;;;13.46;100.00
10897;BME280;5501;51.176;6.470;2023-08-31T04:26:48;100376.03;;;13.35;100.00
10897;BME280;5501;51.176;6.470;2023-08-31T04:31:52;100375.50;;;13.47;100.00
10897;BME280;5501;51.176;6.470;2023-08-31T04:36:54;100385.00;;;13.34;100.00
10897;BME280;5501;51.176;6.470;2023-08-31T04:41:55;100392.59;;;13.43;100.00
10897;BME280;5501;51.176;6.470;2023-08-31T04:46:57;100396.28;;;13.40;100.00
10897;BME280;5501;51.176;6.470;2023-08-31T04:51:58;100397.81;;;13.46;100.00
10897;BME280;5501;51.176;6.470;2023-08-31T04:57:00;100401.03;;;13.34;100.00
10897;BME280;5501;51.176;6.470;2023-08-31T05:02:02;100407.66;;;13.44;100.00
10897;BME280;5501;51.176;6.470;2023-08-31T05:07:04;100413.44;;;13.35;100.00
10897;BME280;5501;51.176;6.470;2023-08-31T05:12:06;100417.03;;;13.34;100.00
10897;BME280;5501;51.176;6.470;2023-08-31T05:17:11;100419.53;;;13.38;100.00
10897;BME280;5501;51.176;6.470;2023-08-31T05:22:12;100432.13;;;13.35;100.00
10897;BME280;5501;51.176;6.470;2023-08-31T05:27:14;100441.34;;;13.48;100.00
10897;BME280;5501;51.176;6.470;2023-08-31T05:32:16;100442.69;;;13.58;100.00
10897;BME280;5501;51.176;6.470;2023-08-31T05:37:17;100439.34;;;13.53;100.00
10897;BME280;5501;51.176;6.470;2023-08-31T05:42:19;100446.13;;;13.60;100.00
10897;BME280;5501;51.176;6.470;2023-08-31T05:47:20;100455.44;;;13.71;100.00
10897;BME280;5501;51.176;6.470;2023-08-31T05:52:22;100462.56;;;13.71;100.00
10897;BME280;5501;51.176;6.470;2023-08-31T05:57:23;100457.22;;;13.71;100.00
10897;BME280;5501;51.176;6.470;2023-08-31T06:02:25;100466.84;;;13.75;100.00
10897;BME280;5501;51.176;6.470;2023-08-31T06:07:26;100472.66;;;13.84;100.00
10897;BME280;5501;51.176;6.470;2023-08-31T06:12:30;100478.28;;;13.97;100.00
10897;BME280;5501;51.176;6.470;2023-08-31T06:17:32;100480.91;;;13.98;100.00
10897;BME280;5501;51.176;6.470;2023-08-31T06:22:34;100477.03;;;14.05;100.00
10897;BME280;5501;51.176;6.470;2023-08-31T06:27:35;100482.56;;;14.21;100.00
10897;BME280;5501;51.176;6.470;2023-08-31T06:32:37;100477.22;;;14.39;100.00
10897;BME280;5501;51.176;6.470;2023-08-31T06:37:39;100482.28;;;14.27;100.00
10897;BME280;5501;51.176;6.470;2023-08-31T06:42:41;100484.84;;;14.48;100.00
10897;BME280;5501;51.176;6.470;2023-08-31T06:47:42;100488.44;;;14.47;100.00
10897;BME280;5501;51.176;6.470;2023-08-31T06:52:44;100483.16;;;14.64;100.00
10897;BME280;5501;51.176;6.470;2023-08-31T06:57:48;100490.09;;;14.68;100.00
10897;BME280;5501;51.176;6.470;2023-08-31T07:02:49;100497.16;;;14.88;100.00
10897;BME280;5501;51.176;6.470;2023-08-31T07:07:54;100499.31;;;14.98;100.00
10897;BME280;5501;51.176;6.470;2023-08-31T07:12:55;100500.91;;;15.02;100.00
10897;BME280;5501;51.176;6.470;2023-08-31T07:17:57;100499.13;;;15.20;100.00
10897;BME280;5501;51.176;6.470;2023-08-31T07:22:59;100509.38;;;15.29;100.00
10897;BME280;5501;51.176;6.470;2023-08-31T07:28:00;100511.47;;;15.41;100.00
10897;BME280;5501;51.176;6.470;2023-08-31T07:33:03;100518.09;;;15.51;100.00
10897;BME280;5501;51.176;6.470;2023-08-31T07:38:25;100522.88;;;15.62;99.38
10897;BME280;5501;51.176;6.470;2023-08-31T07:43:27;100533.72;;;15.77;99.00
10897;BME280;5501;51.176;6.470;2023-08-31T07:48:29;100534.63;;;15.76;98.89
10897;BME280;5501;51.176;6.470;2023-08-31T07:53:30;100535.56;;;15.92;97.81
10897;BME280;5501;51.176;6.470;2023-08-31T07:58:32;100537.63;;;16.04;96.83
10897;BME280;5501;51.176;6.470;2023-08-31T08:03:33;100545.16;;;16.30;96.43
10897;BME280;5501;51.176;6.470;2023-08-31T08:08:35;100542.06;;;16.38;95.07
10897;BME280;5501;51.176;6.470;2023-08-31T08:13:37;100535.81;;;16.37;94.08
10897;BME280;5501;51.176;6.470;2023-08-31T08:18:38;100545.38;;;16.43;93.46
10897;BME280;5501;51.176;6.470;2023-08-31T08:23:40;100546.94;;;16.47;92.86
10897;BME280;5501;51.176;6.470;2023-08-31T08:28:41;100548.13;;;16.58;91.84
10897;BME280;5501;51.176;6.470;2023-08-31T08:33:43;100547.16;;;16.75;92.42
10897;BME280;5501;51.176;6.470;2023-08-31T08:38:44;100550.91;;;16.88;90.22
10897;BME280;5501;51.176;6.470;2023-08-31T08:43:46;100551.69;;;17.05;90.88
10897;BME280;5501;51.176;6.470;2023-08-31T08:48:48;100561.03;;;16.98;89.62
10897;BME280;5501;51.176;6.470;2023-08-31T08:53:50;100571.28;;;17.23;89.41
10897;BME280;5501;51.176;6.470;2023-08-31T08:58:53;100574.06;;;17.21;89.18
10897;BME280;5501;51.176;6.470;2023-08-31T09:03:54;100563.72;;;17.29;88.75
10897;BME280;5501;51.176;6.470;2023-08-31T09:08:56;100570.56;;;17.50;87.41
10897;BME280;5501;51.176;6.470;2023-08-31T09:13:58;100570.97;;;17.74;83.47
10897;BME280;5501;51.176;6.470;2023-08-31T09:19:00;100572.19;;;17.68;83.90
10897;BME280;5501;51.176;6.470;2023-08-31T09:24:18;100584.84;;;17.82;83.38
10897;BME280;5501;51.176;6.470;2023-08-31T09:29:20;100587.06;;;17.89;83.29
10897;BME280;5501;51.176;6.470;2023-08-31T09:34:32;100574.56;;;17.88;83.04
10897;BME280;5501;51.176;6.470;2023-08-31T09:39:41;100578.94;;;18.05;80.55
10897;BME280;5501;51.176;6.470;2023-08-31T09:44:43;100575.25;;;18.35;79.66
10897;BME280;5501;51.176;6.470;2023-08-31T09:49:45;100577.97;;;18.63;80.01
10897;BME280;5501;51.176;6.470;2023-08-31T09:54:48;100575.81;;;18.96;75.92
10897;BME280;5501;51.176;6.470;2023-08-31T09:59:51;100567.78;;;18.82;76.78
10897;BME280;5501;51.176;6.470;2023-08-31T10:04:53;100569.97;;;18.90;77.85
10897;BME280;5501;51.176;6.470;2023-08-31T10:09:56;100570.41;;;19.24;75.90
10897;BME280;5501;51.176;6.470;2023-08-31T10:14:58;100578.50;;;19.24;73.32
10897;BME280;5501;51.176;6.470;2023-08-31T10:20:00;100571.13;;;19.40;75.08
10897;BME280;5501;51.176;6.470;2023-08-31T10:25:03;100572.75;;;19.43;74.94
10897;BME280;5501;51.176;6.470;2023-08-31T10:30:24;100567.22;;;19.18;71.60
10897;BME280;5501;51.176;6.470;2023-08-31T10:35:40;100586.13;;;19.04;72.92
10897;BME280;5501;51.176;6.470;2023-08-31T10:40:59;100583.53;;;18.88;72.01
10897;BME280;5501;51.176;6.470;2023-08-31T10:46:01;100580.69;;;18.77;73.96
10897;BME280;5501;51.176;6.470;2023-08-31T10:51:04;100579.91;;;18.61;71.74
10897;BME280;5501;51.176;6.470;2023-08-31T10:56:06;100589.91;;;18.45;75.30
10897;BME280;5501;51.176;6.470;2023-08-31T11:01:07;100587.22;;;18.45;78.26
10897;BME280;5501;51.176;6.470;2023-08-31T11:06:10;100578.53;;;18.68;78.09
10897;BME280;5501;51.176;6.470;2023-08-31T11:11:12;100570.47;;;18.82;79.21
10897;BME280;5501;51.176;6.470;2023-08-31T11:16:13;100564.63;;;19.30;73.77
10897;BME280;5501;51.176;6.470;2023-08-31T11:21:15;100555.09;;;19.51;71.02
10897;BME280;5501;51.176;6.470;2023-08-31T11:26:17;100555.19;;;19.50;71.31
10897;BME280;5501;51.176;6.470;2023-08-31T11:31:24;100562.06;;;19.41;68.19
10897;BME280;5501;51.176;6.470;2023-08-31T11:36:26;100563.47;;;19.73;67.05
10897;BME280;5501;51.176;6.470;2023-08-31T11:41:32;100560.28;;;19.81;64.78
10897;BME280;5501;51.176;6.470;2023-08-31T11:46:34;100564.44;;;19.72;61.78
10897;BME280;5501;51.176;6.470;2023-08-31T11:51:38;100565.06;;;19.63;63.82
10897;BME280;5501;51.176;6.470;2023-08-31T11:56:42;100557.50;;;20.08;63.51
10897;BME280;5501;51.176;6.470;2023-08-31T12:01:46;100545.44;;;20.51;65.98
10897;BME280;5501;51.176;6.470;2023-08-31T12:06:50;100540.03;;;20.63;59.65
10897;BME280;5501;51.176;6.470;2023-08-31T12:11:52;100543.88;;;20.84;61.99
10897;BME280;5501;51.176;6.470;2023-08-31T12:17:02;100545.09;;;20.80;60.42
10897;BME280;5501;51.176;6.470;2023-08-31T12:22:05;100544.56;;;20.63;59.63
10897;BME280;5501;51.176;6.470;2023-08-31T12:27:14;100547.38;;;20.74;58.08
10897;BME280;5501;51.176;6.470;2023-08-31T12:32:16;100541.66;;;21.14;58.22
10897;BME280;5501;51.176;6.470;2023-08-31T12:37:19;100554.03;;;21.06;57.37
10897;BME280;5501;51.176;6.470;2023-08-31T12:42:21;100539.81;;;20.91;55.71
10897;BME280;5501;51.176;6.470;2023-08-31T12:47:24;100530.91;;;21.02;56.34
10897;BME280;5501;51.176;6.470;2023-08-31T12:52:26;100531.34;;;20.96;56.18
10897;BME280;5501;51.176;6.470;2023-08-31T12:57:27;100528.31;;;21.00;55.09
10897;BME280;5501;51.176;6.470;2023-08-31T13:02:29;100528.94;;;21.04;53.25
10897;BME280;5501;51.176;6.470;2023-08-31T13:07:31;100525.25;;;21.05;54.16
10897;BME280;5501;51.176;6.470;2023-08-31T13:12:34;100522.84;;;21.13;53.50
10897;BME280;5501;51.176;6.470;2023-08-31T13:17:35;100515.50;;;21.15;53.20
10897;BME280;5501;51.176;6.470;2023-08-31T13:22:37;100513.78;;;21.14;54.30
10897;BME280;5501;51.176;6.470;2023-08-31T13:27:40;100513.91;;;21.00;53.09
10897;BME280;5501;51.176;6.470;2023-08-31T13:32:42;100522.41;;;21.19;55.12
10897;BME280;5501;51.176;6.470;2023-08-31T13:37:44;100515.38;;;21.40;56.96
10897;BME280;5501;51.176;6.470;2023-08-31T13:42:58;100530.41;;;21.44;57.07
10897;BME280;5501;51.176;6.470;2023-08-31T13:48:02;100524.25;;;21.42;60.15
10897;BME280;5501;51.176;6.470;2023-08-31T13:53:05;100540.03;;;21.48;59.44
10897;BME280;5501;51.176;6.470;2023-08-31T13:58:08;100549.22;;;21.69;57.35
10897;BME280;5501;51.176;6.470;2023-08-31T14:03:09;100543.38;;;21.75;53.99
10897;BME280;5501;51.176;6.470;2023-08-31T14:08:11;100553.25;;;21.40;56.08
10897;BME280;5501;51.176;6.470;2023-08-31T14:13:13;100543.53;;;21.37;57.15
10897;BME280;5501;51.176;6.470;2023-08-31T14:18:15;100542.38;;;21.29;56.00
10897;BME280;5501;51.176;6.470;2023-08-31T14:23:17;100536.25;;;21.14;56.98
10897;BME280;5501;51.176;6.470;2023-08-31T14:28:19;100546.34;;;21.36;54.60
10897;BME280;5501;51.176;6.470;2023-08-31T14:33:20;100551.31;;;21.42;55.61
10897;BME280;5501;51.176;6.470;2023-08-31T14:38:22;100550.75;;;21.13;56.14
10897;BME280;5501;51.176;6.470;2023-08-31T14:43:24;100553.41;;;20.77;55.83
10897;BME280;5501;51.176;6.470;2023-08-31T14:48:27;100563.06;;;20.69;58.23
10897;BME280;5501;51.176;6.470;2023-08-31T14:53:29;100572.88;;;20.57;60.78
10897;BME280;5501;51.176;6.470;2023-08-31T14:58:30;100573.31;;;20.64;61.87
10897;BME280;5501;51.176;6.470;2023-08-31T15:03:32;100567.28;;;20.73;60.90
10897;BME280;5501;51.176;6.470;2023-08-31T15:08:39;100560.34;;;20.69;60.91
10897;BME280;5501;51.176;6.470;2023-08-31T15:13:41;100579.59;;;20.77;60.26
10897;BME280;5501;51.176;6.470;2023-08-31T15:18:43;100564.44;;;20.74;58.66
10897;BME280;5501;51.176;6.470;2023-08-31T15:23:46;100581.88;;;20.58;57.28
10897;BME280;5501;51.176;6.470;2023-08-31T15:28:47;100584.56;;;20.58;58.99
10897;BME280;5501;51.176;6.470;2023-08-31T15:33:49;100593.41;;;20.60;57.84
10897;BME280;5501;51.176;6.470;2023-08-31T15:38:51;100605.09;;;20.48;58.98
10897;BME280;5501;51.176;6.470;2023-08-31T15:43:53;100609.19;;;20.16;63.92
10897;BME280;5501;51.176;6.470;2023-08-31T15:48:55;100607.56;;;19.86;69.90
10897;BME280;5501;51.176;6.470;2023-08-31T15:53:57;100612.41;;;19.81;70.62
10897;BME280;5501;51.176;6.470;2023-08-31T15:58:58;100614.41;;;19.65;71.57
10897;BME280;5501;51.176;6.470;2023-08-31T16:04:00;100604.09;;;19.84;72.92
10897;BME280;5501;51.176;6.470;2023-08-31T16:09:02;100598.28;;;19.90;72.34
10897;BME280;5501;51.176;6.470;2023-08-31T16:14:06;100605.44;;;19.92;72.53
10897;BME280;5501;51.176;6.470;2023-08-31T16:19:07;100610.25;;;19.60;68.68
10897;BME280;5501;51.176;6.470;2023-08-31T16:24:09;100604.56;;;19.64;71.76
10897;BME280;5501;51.176;6.470;2023-08-31T16:29:10;100606.13;;;19.54;68.85
10897;BME280;5501;51.176;6.470;2023-08-31T16:34:12;100606.66;;;19.73;66.73
10897;BME280;5501;51.176;6.470;2023-08-31T16:39:13;100606.03;;;19.82;66.81
10897;BME280;5501;51.176;6.470;2023-08-31T16:44:15;100613.88;;;20.00;66.38
10897;BME280;5501;51.176;6.470;2023-08-31T16:49:16;100611.72;;;20.05;66.43
10897;BME280;5501;51.176;6.470;2023-08-31T16:54:19;100615.78;;;19.98;65.46
10897;BME280;5501;51.176;6.470;2023-08-31T16:59:22;100609.59;;;20.10;63.45
10897;BME280;5501;51.176;6.470;2023-08-31T17:04:24;100607.44;;;20.15;62.72
10897;BME280;5501;51.176;6.470;2023-08-31T17:09:29;100612.47;;;20.07;63.04
10897;BME280;5501;51.176;6.470;2023-08-31T17:14:31;100608.69;;;19.97;62.79
10897;BME280;5501;51.176;6.470;2023-08-31T17:19:33;100607.41;;;20.02;64.18
10897;BME280;5501;51.176;6.470;2023-08-31T17:24:35;100607.97;;;19.80;64.32
10897;BME280;5501;51.176;6.470;2023-08-31T17:29:37;100605.19;;;19.82;65.29
10897;BME280;5501;51.176;6.470;2023-08-31T17:34:38;100612.66;;;19.64;66.31
10897;BME280;5501;51.176;6.470;2023-08-31T17:39:40;100611.53;;;19.54;65.30
10897;BME280;5501;51.176;6.470;2023-08-31T17:44:41;100616.91;;;19.68;65.93
10897;BME280;5501;51.176;6.470;2023-08-31T17:49:43;100611.16;;;19.60;66.95
10897;BME280;5501;51.176;6.470;2023-08-31T17:54:45;100616.63;;;19.59;67.52
10897;BME280;5501;51.176;6.470;2023-08-31T17:59:47;100621.38;;;19.55;66.89
10897;BME280;5501;51.176;6.470;2023-08-31T18:04:49;100629.66;;;19.52;67.52
10897;BME280;5501;51.176;6.470;2023-08-31T18:09:51;100638.00;;;19.35;68.87
10897;BME280;5501;51.176;6.470;2023-08-31T18:14:52;100638.75;;;19.09;70.84
10897;BME280;5501;51.176;6.470;2023-08-31T18:19:54;100634.34;;;19.08;70.58
10897;BME280;5501;51.176;6.470;2023-08-31T18:24:56;100645.81;;;18.98;71.99
10897;BME280;5501;51.176;6.470;2023-08-31T18:29:57;100651.19;;;18.98;72.53
10897;BME280;5501;51.176;6.470;2023-08-31T18:34:59;100646.38;;;19.03;73.07
10897;BME280;5501;51.176;6.470;2023-08-31T18:40:01;100660.53;;;18.92;72.20
10897;BME280;5501;51.176;6.470;2023-08-31T18:45:05;100651.09;;;18.99;71.90
10897;BME280;5501;51.176;6.470;2023-08-31T18:50:07;100666.69;;;18.80;72.17
10897;BME280;5501;51.176;6.470;2023-08-31T18:55:09;100666.91;;;18.77;72.66
10897;BME280;5501;51.176;6.470;2023-08-31T19:00:13;100673.44;;;18.73;73.21
10897;BME280;5501;51.176;6.470;2023-08-31T19:05:15;100680.25;;;18.65;74.13
10897;BME280;5501;51.176;6.470;2023-08-31T19:10:18;100683.19;;;18.46;73.75
10897;BME280;5501;51.176;6.470;2023-08-31T19:15:20;100683.56;;;18.40;73.07
10897;BME280;5501;51.176;6.470;2023-08-31T19:20:22;100687.50;;;18.35;71.85
10897;BME280;5501;51.176;6.470;2023-08-31T19:25:23;100684.81;;;18.19;71.46
10897;BME280;5501;51.176;6.470;2023-08-31T19:30:31;100691.88;;;18.06;71.63
10897;BME280;5501;51.176;6.470;2023-08-31T19:35:33;100688.22;;;18.07;72.10
10897;BME280;5501;51.176;6.470;2023-08-31T19:40:38;100696.84;;;17.98;72.23
10897;BME280;5501;51.176;6.470;2023-08-31T19:45:40;100704.16;;;17.96;72.53
10897;BME280;5501;51.176;6.470;2023-08-31T19:50:42;100702.41;;;17.95;73.00
10897;BME280;5501;51.176;6.470;2023-08-31T19:55:44;100703.09;;;17.83;72.94
10897;BME280;5501;51.176;6.470;2023-08-31T20:00:45;100706.94;;;17.79;74.15
10897;BME280;5501;51.176;6.470;2023-08-31T20:05:47;100703.63;;;17.74;74.68
10897;BME280;5501;51.176;6.470;2023-08-31T20:10:48;100712.75;;;17.72;76.45
10897;BME280;5501;51.176;6.470;2023-08-31T20:15:50;100712.50;;;17.45;78.25
10897;BME280;5501;51.176;6.470;2023-08-31T20:20:52;100708.28;;;17.40;79.75
10897;BME280;5501;51.176;6.470;2023-08-31T20:25:53;100704.88;;;17.53;79.56
10897;BME280;5501;51.176;6.470;2023-08-31T20:30:56;100699.13;;;17.44;80.47
10897;BME280;5501;51.176;6.470;2023-08-31T20:36:06;100707.53;;;17.05;82.63
10897;BME280;5501;51.176;6.470;2023-08-31T20:41:16;100701.34;;;17.36;81.84
10897;BME280;5501;51.176;6.470;2023-08-31T20:46:18;100689.75;;;17.35;82.21
10897;BME280;5501;51.176;6.470;2023-08-31T20:51:20;100695.44;;;17.29;82.63
10897;BME280;5501;51.176;6.470;2023-08-31T20:56:22;100697.13;;;16.99;83.95
10897;BME280;5501;51.176;6.470;2023-08-31T21:01:25;100697.31;;;16.96;83.67
10897;BME280;5501;51.176;6.470;2023-08-31T21:06:27;100697.00;;;16.85;82.97
10897;BME280;5501;51.176;6.470;2023-08-31T21:11:29;100688.63;;;16.91;82.94
10897;BME280;5501;51.176;6.470;2023-08-31T21:16:31;100683.91;;;16.79;82.14
10897;BME280;5501;51.176;6.470;2023-08-31T21:21:34;100689.41;;;16.61;83.55
10897;BME280;5501;51.176;6.470;2023-08-31T21:26:35;100694.16;;;16.88;83.41
10897;BME280;5501;51.176;6.470;2023-08-31T21:31:39;100688.50;;;16.60;85.07
10897;BME280;5501;51.176;6.470;2023-08-31T21:36:40;100687.75;;;16.91;83.35
10897;BME280;5501;51.176;6.470;2023-08-31T21:41:42;100691.81;;;16.82;84.18
10897;BME280;5501;51.176;6.470;2023-08-31T21:46:43;100684.69;;;16.81;84.51
10897;BME280;5501;51.176;6.470;2023-08-31T21:51:45;100686.28;;;16.68;84.44
10897;BME280;5501;51.176;6.470;2023-08-31T21:56:46;100696.56;;;16.60;85.96
10897;BME280;5501;51.176;6.470;2023-08-31T22:01:48;100689.00;;;16.51;86.50
10897;BME280;5501;51.176;6.470;2023-08-31T22:06:50;100691.81;;;16.31;87.82
10897;BME280;5501;51.176;6.470;2023-08-31T22:11:52;100706.97;;;16.15;88.60
10897;BME280;5501;51.176;6.470;2023-08-31T22:16:54;100700.66;;;16.16;88.74
10897;BME280;5501;51.176;6.470;2023-08-31T22:21:56;100692.19;;;16.07;89.86
10897;BME280;5501;51.176;6.470;2023-08-31T22:26:58;100697.94;;;15.99;90.50
10897;BME280;5501;51.176;6.470;2023-08-31T22:31:59;100699.09;;;15.77;91.81
10897;BME280;5501;51.176;6.470;2023-08-31T22:37:01;100697.53;;;15.54;92.62
10897;BME280;5501;51.176;6.470;2023-08-31T22:42:05;100691.75;;;15.80;92.53
10897;BME280;5501;51.176;6.470;2023-08-31T22:47:06;100699.00;;;15.43;93.91
10897;BME280;5501;51.176;6.470;2023-08-31T22:52:09;100693.63;;;15.61;93.66
10897;BME280;5501;51.176;6.470;2023-08-31T22:57:11;100703.25;;;15.65;94.03
10897;BME280;5501;51.176;6.470;2023-08-31T23:02:12;100698.22;;;15.76;93.36
10897;BME280;5501;51.176;6.470;2023-08-31T23:07:14;100708.22;;;15.73;93.54
10897;BME280;5501;51.176;6.470;2023-08-31T23:12:15;100696.81;;;15.51;94.58
10897;BME280;5501;51.176;6.470;2023-08-31T23:17:17;100701.59;;;15.63;93.60
10897;BME280;5501;51.176;6.470;2023-08-31T23:22:19;100691.97;;;15.59;94.42
10897;BME280;5501;51.176;6.470;2023-08-31T23:27:20;100668.09;;;15.34;95.20
10897;BME280;5501;51.176;6.470;2023-08-31T23:32:22;100661.00;;;15.33;95.42
10897;BME280;5501;51.176;6.470;2023-08-31T23:37:23;100656.97;;;15.43;95.56
10897;BME280;5501;51.176;6.470;2023-08-31T23:42:25;100661.72;;;15.55;94.96
10897;BME280;5501;51.176;6.470;2023-08-31T23:47:27;100655.34;;;15.20;96.87
10897;BME280;5501;51.176;6.470;2023-08-31T23:52:28;100658.16;;;15.38;96.14
10897;BME280;5501;51.176;6.470;2023-08-31T23:57:30;100657.13;;;15.21;96.78
